sensor_id;sensor_type;location;lat;lon;timestamp;P1;durP1;ratioP1;P2;durP2;ratioP2
23078;SDS011;11707;50.830;4.364;2023-04-15T00:01:59;4.57;;;2.80;;
23078;SDS011;11707;50.830;4.364;2023-04-15T00:04:26;4.38;;;2.83;;
23078;SDS011;11707;50.830;4.364;2023-04-15T00:06:52;4.68;;;2.95;;
23078;SDS011;11707;50.830;4.364;2023-04-15T00:09:19;6.18;;;3.40;;
23078;SDS011;11707;50.830;4.364;2023-04-15T00:11:45;8.18;;;2.97;;
23078;SDS011;11707;50.830;4.364;2023-04-15T00:14:13;4.70;;;3.47;;
23078;SDS011;11707;50.830;4.364;2023-04-15T00:16:39;8.82;;;3.60;;
23078;SDS011;11707;50.830;4.364;2023-04-15T00:19:05;5.72;;;3.67;;
23078;SDS011;11707;50.830;4.364;2023-04-15T00:21:31;7.88;;;3.65;;
23078;SDS011;11707;50.830;4.364;2023-04-15T00:23:56;7.88;;;4.10;;
23078;SDS011;11707;50.830;4.364;2023-04-15T00:26:25;6.57;;;3.40;;
23078;SDS011;11707;50.830;4.364;2023-04-15T00:28:51;6.05;;;3.35;;
23078;SDS011;11707;50.830;4.364;2023-04-15T00:31:17;6.90;;;4.45;;
23078;SDS011;11707;50.830;4.364;2023-04-15T00:33:43;11.10;;;3.75;;
23078;SDS011;11707;50.830;4.364;2023-04-15T00:36:09;6.18;;;3.45;;
23078;SDS011;11707;50.830;4.364;2023-04-15T00:38:35;8.15;;;4.15;;
23078;SDS011;11707;50.830;4.364;2023-04-15T00:41:02;5.60;;;3.33;;
23078;SDS011;11707;50.830;4.364;2023-04-15T00:43:28;5.40;;;3.47;;
23078;SDS011;11707;50.830;4.364;2023-04-15T00:45:54;5.35;;;3.38;;
23078;SDS011;11707;50.830;4.364;2023-04-15T00:48:25;5.85;;;4.05;;
23078;SDS011;11707;50.830;4.364;2023-04-15T00:50:51;7.57;;;3.60;;
23078;SDS011;11707;50.830;4.364;2023-04-15T00:53:17;6.30;;;3.05;;
23078;SDS011;11707;50.830;4.364;2023-04-15T00:55:43;3.70;;;2.30;;
23078;SDS011;11707;50.830;4.364;2023-04-15T00:58:09;3.60;;;2.42;;
23078;SDS011;11707;50.830;4.364;2023-04-15T01:00:37;7.90;;;3.47;;
23078;SDS011;11707;50.830;4.364;2023-04-15T01:03:02;7.18;;;3.63;;
23078;SDS011;11707;50.830;4.364;2023-04-15T01:05:28;5.03;;;3.33;;
23078;SDS011;11707;50.830;4.364;2023-04-15T01:07:55;4.43;;;3.17;;
23078;SDS011;11707;50.830;4.364;2023-04-15T01:10:20;6.78;;;3.22;;
23078;SDS011;11707;50.830;4.364;2023-04-15T01:12:46;5.93;;;3.83;;
23078;SDS011;11707;50.830;4.364;2023-04-15T01:15:12;4.57;;;3.20;;
23078;SDS011;11707;50.830;4.364;2023-04-15T01:17:38;8.20;;;3.85;;
23078;SDS011;11707;50.830;4.364;2023-04-15T01:20:08;3.60;;;2.97;;
23078;SDS011;11707;50.830;4.364;2023-04-15T01:22:34;4.57;;;2.92;;
23078;SDS011;11707;50.830;4.364;2023-04-15T01:25:07;4.80;;;2.17;;
23078;SDS011;11707;50.830;4.364;2023-04-15T01:27:39;4.63;;;2.10;;
23078;SDS011;11707;50.830;4.364;2023-04-15T01:30:06;4.07;;;2.92;;
23078;SDS011;11707;50.830;4.364;2023-04-15T01:32:33;4.40;;;2.65;;
23078;SDS011;11707;50.830;4.364;2023-04-15T01:34:58;3.10;;;2.33;;
23078;SDS011;11707;50.830;4.364;2023-04-15T01:37:24;4.88;;;2.20;;
23078;SDS011;11707;50.830;4.364;2023-04-15T01:39:55;3.20;;;2.08;;
23078;SDS011;11707;50.830;4.364;2023-04-15T01:42:24;4.95;;;1.73;;
23078;SDS011;11707;50.830;4.364;2023-04-15T01:44:50;4.85;;;2.30;;
23078;SDS011;11707;50.830;4.364;2023-04-15T01:47:18;4.60;;;2.53;;
23078;SDS011;11707;50.830;4.364;2023-04-15T01:49:48;3.88;;;2.30;;
23078;SDS011;11707;50.830;4.364;2023-04-15T01:52:14;5.97;;;2.30;;
23078;SDS011;11707;50.830;4.364;2023-04-15T01:54:42;5.10;;;2.50;;
23078;SDS011;11707;50.830;4.364;2023-04-15T01:57:08;7.22;;;2.50;;
23078;SDS011;11707;50.830;4.364;2023-04-15T01:59:34;3.95;;;2.38;;
23078;SDS011;11707;50.830;4.364;2023-04-15T02:02:02;3.55;;;2.60;;
23078;SDS011;11707;50.830;4.364;2023-04-15T02:04:29;3.28;;;2.15;;
23078;SDS011;11707;50.830;4.364;2023-04-15T02:06:55;4.63;;;2.55;;
23078;SDS011;11707;50.830;4.364;2023-04-15T02:09:21;3.58;;;2.08;;
23078;SDS011;11707;50.830;4.364;2023-04-15T02:11:47;3.60;;;2.10;;
23078;SDS011;11707;50.830;4.364;2023-04-15T02:14:13;6.72;;;2.38;;
23078;SDS011;11707;50.830;4.364;2023-04-15T02:16:39;4.00;;;2.30;;
23078;SDS011;11707;50.830;4.364;2023-04-15T02:19:05;6.10;;;2.78;;
23078;SDS011;11707;50.830;4.364;2023-04-15T02:21:30;3.80;;;2.72;;
23078;SDS011;11707;50.830;4.364;2023-04-15T02:23:56;4.57;;;2.90;;
23078;SDS011;11707;50.830;4.364;2023-04-15T02:26:22;6.07;;;3.17;;
23078;SDS011;11707;50.830;4.364;2023-04-15T02:28:49;4.38;;;2.70;;
23078;SDS011;11707;50.830;4.364;2023-04-15T02:31:18;5.25;;;2.88;;
23078;SDS011;11707;50.830;4.364;2023-04-15T02:33:46;4.10;;;2.97;;
23078;SDS011;11707;50.830;4.364;2023-04-15T02:36:11;4.85;;;3.05;;
23078;SDS011;11707;50.830;4.364;2023-04-15T02:38:37;4.18;;;2.67;;
23078;SDS011;11707;50.830;4.364;2023-04-15T02:41:06;5.72;;;2.80;;
23078;SDS011;11707;50.830;4.364;2023-04-15T02:43:32;8.10;;;2.60;;
23078;SDS011;11707;50.830;4.364;2023-04-15T02:45:58;5.70;;;2.65;;
23078;SDS011;11707;50.830;4.364;2023-04-15T02:48:23;5.82;;;3.20;;
23078;SDS011;11707;50.830;4.364;2023-04-15T02:50:50;5.55;;;3.20;;
23078;SDS011;11707;50.830;4.364;2023-04-15T02:53:15;5.47;;;3.03;;
23078;SDS011;11707;50.830;4.364;2023-04-15T02:55:41;8.90;;;3.63;;
23078;SDS011;11707;50.830;4.364;2023-04-15T02:58:07;8.63;;;4.20;;
23078;SDS011;11707;50.830;4.364;2023-04-15T03:00:32;6.88;;;3.97;;
23078;SDS011;11707;50.830;4.364;2023-04-15T03:03:00;11.13;;;4.28;;
23078;SDS011;11707;50.830;4.364;2023-04-15T03:05:28;9.10;;;4.95;;
23078;SDS011;11707;50.830;4.364;2023-04-15T03:07:53;10.93;;;5.10;;
23078;SDS011;11707;50.830;4.364;2023-04-15T03:10:19;13.55;;;5.50;;
23078;SDS011;11707;50.830;4.364;2023-04-15T03:12:46;13.27;;;5.22;;
23078;SDS011;11707;50.830;4.364;2023-04-15T03:15:12;14.30;;;7.03;;
23078;SDS011;11707;50.830;4.364;2023-04-15T03:17:38;14.07;;;6.60;;
23078;SDS011;11707;50.830;4.364;2023-04-15T03:20:04;12.43;;;7.40;;
23078;SDS011;11707;50.830;4.364;2023-04-15T03:22:31;13.32;;;7.22;;
23078;SDS011;11707;50.830;4.364;2023-04-15T03:24:57;16.77;;;8.65;;
23078;SDS011;11707;50.830;4.364;2023-04-15T03:27:25;15.70;;;8.93;;
23078;SDS011;11707;50.830;4.364;2023-04-15T03:29:51;20.58;;;9.98;;
23078;SDS011;11707;50.830;4.364;2023-04-15T03:32:19;23.70;;;11.45;;
23078;SDS011;11707;50.830;4.364;2023-04-15T03:34:45;24.58;;;12.30;;
23078;SDS011;11707;50.830;4.364;2023-04-15T03:37:10;22.77;;;11.55;;
23078;SDS011;11707;50.830;4.364;2023-04-15T03:39:36;24.25;;;12.73;;
23078;SDS011;11707;50.830;4.364;2023-04-15T03:42:02;28.58;;;12.45;;
23078;SDS011;11707;50.830;4.364;2023-04-15T03:44:30;24.00;;;12.65;;
23078;SDS011;11707;50.830;4.364;2023-04-15T03:46:56;24.13;;;12.60;;
23078;SDS011;11707;50.830;4.364;2023-04-15T03:49:22;22.52;;;11.55;;
23078;SDS011;11707;50.830;4.364;2023-04-15T03:51:48;18.52;;;10.50;;
23078;SDS011;11707;50.830;4.364;2023-04-15T03:54:14;15.63;;;8.57;;
23078;SDS011;11707;50.830;4.364;2023-04-15T03:56:40;14.13;;;7.85;;
23078;SDS011;11707;50.830;4.364;2023-04-15T03:59:06;26.73;;;10.05;;
23078;SDS011;11707;50.830;4.364;2023-04-15T04:01:31;16.17;;;8.98;;
23078;SDS011;11707;50.830;4.364;2023-04-15T04:03:57;17.45;;;9.93;;
23078;SDS011;11707;50.830;4.364;2023-04-15T04:06:23;14.48;;;8.80;;
23078;SDS011;11707;50.830;4.364;2023-04-15T04:08:49;17.20;;;8.52;;
23078;SDS011;11707;50.830;4.364;2023-04-15T04:11:14;16.65;;;8.32;;
23078;SDS011;11707;50.830;4.364;2023-04-15T04:13:40;13.32;;;7.82;;
23078;SDS011;11707;50.830;4.364;2023-04-15T04:16:06;14.02;;;8.20;;
23078;SDS011;11707;50.830;4.364;2023-04-15T04:18:33;17.77;;;9.00;;
23078;SDS011;11707;50.830;4.364;2023-04-15T04:20:59;13.98;;;8.60;;
23078;SDS011;11707;50.830;4.364;2023-04-15T04:23:25;14.52;;;8.48;;
23078;SDS011;11707;50.830;4.364;2023-04-15T04:25:51;14.35;;;8.40;;
23078;SDS011;11707;50.830;4.364;2023-04-15T04:28:17;13.73;;;8.38;;
23078;SDS011;11707;50.830;4.364;2023-04-15T04:30:43;16.73;;;8.93;;
23078;SDS011;11707;50.830;4.364;2023-04-15T04:33:09;13.55;;;7.53;;
23078;SDS011;11707;50.830;4.364;2023-04-15T04:35:35;10.18;;;7.35;;
23078;SDS011;11707;50.830;4.364;2023-04-15T04:38:02;11.98;;;8.18;;
23078;SDS011;11707;50.830;4.364;2023-04-15T04:40:29;13.45;;;8.20;;
23078;SDS011;11707;50.830;4.364;2023-04-15T04:42:55;10.45;;;6.55;;
23078;SDS011;11707;50.830;4.364;2023-04-15T04:45:21;14.60;;;8.52;;
23078;SDS011;11707;50.830;4.364;2023-04-15T04:47:47;11.70;;;7.22;;
23078;SDS011;11707;50.830;4.364;2023-04-15T04:50:16;17.13;;;7.45;;
23078;SDS011;11707;50.830;4.364;2023-04-15T04:52:41;13.20;;;6.50;;
23078;SDS011;11707;50.830;4.364;2023-04-15T04:55:07;13.13;;;7.13;;
23078;SDS011;11707;50.830;4.364;2023-04-15T04:57:33;9.25;;;6.35;;
23078;SDS011;11707;50.830;4.364;2023-04-15T05:00:05;7.80;;;5.43;;
23078;SDS011;11707;50.830;4.364;2023-04-15T05:02:33;10.75;;;6.13;;
23078;SDS011;11707;50.830;4.364;2023-04-15T05:04:59;9.63;;;5.95;;
23078;SDS011;11707;50.830;4.364;2023-04-15T05:07:25;10.50;;;5.75;;
23078;SDS011;11707;50.830;4.364;2023-04-15T05:09:51;8.30;;;5.15;;
23078;SDS011;11707;50.830;4.364;2023-04-15T05:12:17;11.35;;;5.75;;
23078;SDS011;11707;50.830;4.364;2023-04-15T05:14:43;9.85;;;6.05;;
23078;SDS011;11707;50.830;4.364;2023-04-15T05:17:13;10.50;;;5.63;;
23078;SDS011;11707;50.830;4.364;2023-04-15T05:19:39;8.77;;;4.63;;
23078;SDS011;11707;50.830;4.364;2023-04-15T05:22:05;10.27;;;4.95;;
23078;SDS011;11707;50.830;4.364;2023-04-15T05:24:31;16.45;;;5.25;;
23078;SDS011;11707;50.830;4.364;2023-04-15T05:26:57;11.73;;;5.80;;
23078;SDS011;11707;50.830;4.364;2023-04-15T05:29:22;9.57;;;5.38;;
23078;SDS011;11707;50.830;4.364;2023-04-15T05:31:48;11.63;;;5.18;;
23078;SDS011;11707;50.830;4.364;2023-04-15T05:34:14;9.52;;;5.30;;
23078;SDS011;11707;50.830;4.364;2023-04-15T05:36:42;8.75;;;5.10;;
23078;SDS011;11707;50.830;4.364;2023-04-15T05:39:07;15.10;;;4.80;;
23078;SDS011;11707;50.830;4.364;2023-04-15T05:41:34;8.30;;;4.95;;
23078;SDS011;11707;50.830;4.364;2023-04-15T05:44:00;10.80;;;5.00;;
23078;SDS011;11707;50.830;4.364;2023-04-15T05:46:26;13.70;;;5.63;;
23078;SDS011;11707;50.830;4.364;2023-04-15T05:48:51;11.98;;;6.18;;
23078;SDS011;11707;50.830;4.364;2023-04-15T05:51:17;10.75;;;4.85;;
23078;SDS011;11707;50.830;4.364;2023-04-15T05:53:43;9.15;;;5.63;;
23078;SDS011;11707;50.830;4.364;2023-04-15T05:56:09;10.65;;;5.07;;
23078;SDS011;11707;50.830;4.364;2023-04-15T05:58:35;10.05;;;5.28;;
23078;SDS011;11707;50.830;4.364;2023-04-15T06:01:01;12.63;;;5.85;;
23078;SDS011;11707;50.830;4.364;2023-04-15T06:03:30;9.88;;;5.70;;
23078;SDS011;11707;50.830;4.364;2023-04-15T06:05:58;9.57;;;5.47;;
23078;SDS011;11707;50.830;4.364;2023-04-15T06:08:25;9.25;;;5.60;;
23078;SDS011;11707;50.830;4.364;2023-04-15T06:10:53;14.07;;;6.60;;
23078;SDS011;11707;50.830;4.364;2023-04-15T06:13:19;9.43;;;6.20;;
23078;SDS011;11707;50.830;4.364;2023-04-15T06:15:45;14.02;;;6.55;;
23078;SDS011;11707;50.830;4.364;2023-04-15T06:18:10;9.73;;;6.57;;
23078;SDS011;11707;50.830;4.364;2023-04-15T06:20:38;11.88;;;6.63;;
23078;SDS011;11707;50.830;4.364;2023-04-15T06:23:07;9.40;;;6.32;;
23078;SDS011;11707;50.830;4.364;2023-04-15T06:25:36;10.18;;;6.15;;
23078;SDS011;11707;50.830;4.364;2023-04-15T06:28:01;14.45;;;6.85;;
23078;SDS011;11707;50.830;4.364;2023-04-15T06:30:27;10.40;;;5.97;;
23078;SDS011;11707;50.830;4.364;2023-04-15T06:32:53;12.32;;;6.57;;
23078;SDS011;11707;50.830;4.364;2023-04-15T06:35:20;12.30;;;6.25;;
23078;SDS011;11707;50.830;4.364;2023-04-15T06:37:46;11.45;;;7.15;;
23078;SDS011;11707;50.830;4.364;2023-04-15T06:40:11;10.90;;;7.47;;
23078;SDS011;11707;50.830;4.364;2023-04-15T06:42:37;14.32;;;8.32;;
23078;SDS011;11707;50.830;4.364;2023-04-15T06:45:03;9.40;;;6.90;;
23078;SDS011;11707;50.830;4.364;2023-04-15T06:47:29;7.43;;;5.53;;
23078;SDS011;11707;50.830;4.364;2023-04-15T06:49:55;11.73;;;6.00;;
23078;SDS011;11707;50.830;4.364;2023-04-15T06:52:20;11.82;;;6.15;;
23078;SDS011;11707;50.830;4.364;2023-04-15T06:54:46;14.32;;;5.97;;
23078;SDS011;11707;50.830;4.364;2023-04-15T06:57:12;14.38;;;5.32;;
23078;SDS011;11707;50.830;4.364;2023-04-15T06:59:38;9.25;;;5.35;;
23078;SDS011;11707;50.830;4.364;2023-04-15T07:02:03;11.15;;;4.45;;
23078;SDS011;11707;50.830;4.364;2023-04-15T07:04:30;9.52;;;4.72;;
23078;SDS011;11707;50.830;4.364;2023-04-15T07:06:56;10.95;;;5.70;;
23078;SDS011;11707;50.830;4.364;2023-04-15T07:09:22;11.00;;;4.95;;
23078;SDS011;11707;50.830;4.364;2023-04-15T07:11:48;8.85;;;4.55;;
23078;SDS011;11707;50.830;4.364;2023-04-15T07:14:14;9.98;;;5.45;;
23078;SDS011;11707;50.830;4.364;2023-04-15T07:16:42;13.65;;;6.00;;
23078;SDS011;11707;50.830;4.364;2023-04-15T07:19:07;6.43;;;4.53;;
23078;SDS011;11707;50.830;4.364;2023-04-15T07:21:36;13.98;;;5.78;;
23078;SDS011;11707;50.830;4.364;2023-04-15T07:24:01;8.77;;;5.95;;
23078;SDS011;11707;50.830;4.364;2023-04-15T07:26:27;12.63;;;6.63;;
23078;SDS011;11707;50.830;4.364;2023-04-15T07:28:53;13.77;;;6.10;;
23078;SDS011;11707;50.830;4.364;2023-04-15T07:31:18;9.70;;;4.97;;
23078;SDS011;11707;50.830;4.364;2023-04-15T07:33:44;11.73;;;5.63;;
23078;SDS011;11707;50.830;4.364;2023-04-15T07:36:10;13.85;;;5.72;;
23078;SDS011;11707;50.830;4.364;2023-04-15T07:38:38;10.95;;;6.22;;
23078;SDS011;11707;50.830;4.364;2023-04-15T07:41:04;11.77;;;5.60;;
23078;SDS011;11707;50.830;4.364;2023-04-15T07:43:32;13.75;;;6.13;;
23078;SDS011;11707;50.830;4.364;2023-04-15T07:45:58;12.20;;;7.32;;
23078;SDS011;11707;50.830;4.364;2023-04-15T07:48:24;18.23;;;6.82;;
23078;SDS011;11707;50.830;4.364;2023-04-15T07:50:49;12.70;;;5.53;;
23078;SDS011;11707;50.830;4.364;2023-04-15T07:53:15;13.73;;;7.55;;
23078;SDS011;11707;50.830;4.364;2023-04-15T07:55:41;12.65;;;6.43;;
23078;SDS011;11707;50.830;4.364;2023-04-15T07:58:06;12.18;;;6.32;;
23078;SDS011;11707;50.830;4.364;2023-04-15T08:00:34;11.43;;;6.80;;
23078;SDS011;11707;50.830;4.364;2023-04-15T08:03:02;12.15;;;7.63;;
23078;SDS011;11707;50.830;4.364;2023-04-15T08:05:28;10.45;;;6.88;;
23078;SDS011;11707;50.830;4.364;2023-04-15T08:07:54;12.63;;;7.05;;
23078;SDS011;11707;50.830;4.364;2023-04-15T08:10:20;12.73;;;8.38;;
23078;SDS011;11707;50.830;4.364;2023-04-15T08:12:46;20.33;;;9.48;;
23078;SDS011;11707;50.830;4.364;2023-04-15T08:15:13;14.38;;;7.57;;
23078;SDS011;11707;50.830;4.364;2023-04-15T08:17:39;14.05;;;9.50;;
23078;SDS011;11707;50.830;4.364;2023-04-15T08:20:05;12.65;;;8.27;;
23078;SDS011;11707;50.830;4.364;2023-04-15T08:22:31;13.95;;;8.05;;
23078;SDS011;11707;50.830;4.364;2023-04-15T08:24:59;19.65;;;8.25;;
23078;SDS011;11707;50.830;4.364;2023-04-15T08:27:25;14.60;;;8.68;;
23078;SDS011;11707;50.830;4.364;2023-04-15T08:29:51;17.30;;;8.35;;
23078;SDS011;11707;50.830;4.364;2023-04-15T08:32:17;15.75;;;8.38;;
23078;SDS011;11707;50.830;4.364;2023-04-15T08:34:45;14.55;;;9.30;;
23078;SDS011;11707;50.830;4.364;2023-04-15T08:37:13;15.13;;;9.18;;
23078;SDS011;11707;50.830;4.364;2023-04-15T08:39:38;21.05;;;9.05;;
23078;SDS011;11707;50.830;4.364;2023-04-15T08:42:05;12.63;;;8.98;;
23078;SDS011;11707;50.830;4.364;2023-04-15T08:44:41;13.15;;;9.48;;
23078;SDS011;11707;50.830;4.364;2023-04-15T08:47:08;18.08;;;9.60;;
23078;SDS011;11707;50.830;4.364;2023-04-15T08:49:41;14.90;;;9.18;;
23078;SDS011;11707;50.830;4.364;2023-04-15T08:52:07;13.85;;;8.50;;
23078;SDS011;11707;50.830;4.364;2023-04-15T08:54:34;13.63;;;8.73;;
23078;SDS011;11707;50.830;4.364;2023-04-15T08:57:02;13.50;;;9.40;;
23078;SDS011;11707;50.830;4.364;2023-04-15T08:59:31;15.85;;;9.18;;
23078;SDS011;11707;50.830;4.364;2023-04-15T09:01:59;12.90;;;9.02;;
23078;SDS011;11707;50.830;4.364;2023-04-15T09:04:25;15.25;;;8.20;;
23078;SDS011;11707;50.830;4.364;2023-04-15T09:06:52;17.90;;;9.07;;
23078;SDS011;11707;50.830;4.364;2023-04-15T09:09:21;15.55;;;9.50;;
23078;SDS011;11707;50.830;4.364;2023-04-15T09:11:46;15.07;;;9.32;;
23078;SDS011;11707;50.830;4.364;2023-04-15T09:14:15;21.17;;;8.30;;
23078;SDS011;11707;50.830;4.364;2023-04-15T09:19:28;15.07;;;8.75;;
23078;SDS011;11707;50.830;4.364;2023-04-15T09:21:57;14.00;;;8.50;;
23078;SDS011;11707;50.830;4.364;2023-04-15T09:24:24;13.48;;;8.52;;
23078;SDS011;11707;50.830;4.364;2023-04-15T09:26:53;13.93;;;8.63;;
23078;SDS011;11707;50.830;4.364;2023-04-15T09:29:25;14.60;;;8.30;;
23078;SDS011;11707;50.830;4.364;2023-04-15T09:31:51;10.85;;;7.65;;
23078;SDS011;11707;50.830;4.364;2023-04-15T09:34:17;12.73;;;7.20;;
23078;SDS011;11707;50.830;4.364;2023-04-15T09:39:12;9.63;;;5.57;;
23078;SDS011;11707;50.830;4.364;2023-04-15T09:41:38;8.18;;;4.82;;
23078;SDS011;11707;50.830;4.364;2023-04-15T09:44:04;8.88;;;4.18;;
23078;SDS011;11707;50.830;4.364;2023-04-15T09:46:40;9.77;;;4.95;;
23078;SDS011;11707;50.830;4.364;2023-04-15T09:49:10;7.63;;;4.60;;
23078;SDS011;11707;50.830;4.364;2023-04-15T09:51:37;7.18;;;5.15;;
23078;SDS011;11707;50.830;4.364;2023-04-15T09:54:03;7.97;;;5.03;;
23078;SDS011;11707;50.830;4.364;2023-04-15T09:56:35;11.30;;;5.60;;
23078;SDS011;11707;50.830;4.364;2023-04-15T09:59:05;7.63;;;6.38;;
23078;SDS011;11707;50.830;4.364;2023-04-15T10:01:31;10.40;;;5.28;;
23078;SDS011;11707;50.830;4.364;2023-04-15T10:03:57;9.85;;;4.20;;
23078;SDS011;11707;50.830;4.364;2023-04-15T10:06:26;7.10;;;4.03;;
23078;SDS011;11707;50.830;4.364;2023-04-15T10:08:53;5.35;;;3.78;;
23078;SDS011;11707;50.830;4.364;2023-04-15T10:11:21;8.45;;;4.75;;
23078;SDS011;11707;50.830;4.364;2023-04-15T10:13:50;10.52;;;5.28;;
23078;SDS011;11707;50.830;4.364;2023-04-15T10:16:20;7.47;;;5.18;;
23078;SDS011;11707;50.830;4.364;2023-04-15T10:18:48;7.32;;;4.75;;
23078;SDS011;11707;50.830;4.364;2023-04-15T10:21:18;8.45;;;6.07;;
23078;SDS011;11707;50.830;4.364;2023-04-15T10:23:46;9.48;;;6.25;;
23078;SDS011;11707;50.830;4.364;2023-04-15T10:26:12;8.20;;;5.90;;
23078;SDS011;11707;50.830;4.364;2023-04-15T10:28:40;9.15;;;4.72;;
23078;SDS011;11707;50.830;4.364;2023-04-15T10:31:10;8.23;;;5.47;;
23078;SDS011;11707;50.830;4.364;2023-04-15T10:33:40;7.78;;;4.88;;
23078;SDS011;11707;50.830;4.364;2023-04-15T10:36:09;10.30;;;5.30;;
23078;SDS011;11707;50.830;4.364;2023-04-15T10:38:40;7.75;;;4.40;;
23078;SDS011;11707;50.830;4.364;2023-04-15T10:41:17;6.10;;;4.53;;
23078;SDS011;11707;50.830;4.364;2023-04-15T10:49:08;11.40;;;4.82;;
23078;SDS011;11707;50.830;4.364;2023-04-15T10:51:36;6.43;;;4.75;;
23078;SDS011;11707;50.830;4.364;2023-04-15T10:54:16;5.10;;;3.97;;
23078;SDS011;11707;50.830;4.364;2023-04-15T10:59:30;4.55;;;2.90;;
23078;SDS011;11707;50.830;4.364;2023-04-15T11:02:04;6.30;;;2.33;;
23078;SDS011;11707;50.830;4.364;2023-04-15T11:07:34;7.00;;;3.47;;
23078;SDS011;11707;50.830;4.364;2023-04-15T11:10:49;6.00;;;2.88;;
23078;SDS011;11707;50.830;4.364;2023-04-15T11:12:51;5.50;;;2.65;;
23078;SDS011;11707;50.830;4.364;2023-04-15T11:15:27;5.47;;;2.38;;
23078;SDS011;11707;50.830;4.364;2023-04-15T11:17:54;4.63;;;2.85;;
23078;SDS011;11707;50.830;4.364;2023-04-15T11:20:21;5.22;;;2.92;;
23078;SDS011;11707;50.830;4.364;2023-04-15T11:22:50;3.13;;;2.67;;
23078;SDS011;11707;50.830;4.364;2023-04-15T11:25:21;6.10;;;3.35;;
23078;SDS011;11707;50.830;4.364;2023-04-15T11:27:48;8.07;;;3.85;;
23078;SDS011;11707;50.830;4.364;2023-04-15T11:30:18;4.55;;;3.30;;
23078;SDS011;11707;50.830;4.364;2023-04-15T11:32:48;4.70;;;3.50;;
23078;SDS011;11707;50.830;4.364;2023-04-15T11:35:15;6.20;;;3.90;;
23078;SDS011;11707;50.830;4.364;2023-04-15T11:37:42;6.60;;;3.15;;
23078;SDS011;11707;50.830;4.364;2023-04-15T11:40:08;4.38;;;2.42;;
23078;SDS011;11707;50.830;4.364;2023-04-15T11:42:34;4.47;;;2.97;;
23078;SDS011;11707;50.830;4.364;2023-04-15T11:45:09;6.10;;;3.15;;
23078;SDS011;11707;50.830;4.364;2023-04-15T11:47:37;5.00;;;2.50;;
23078;SDS011;11707;50.830;4.364;2023-04-15T11:50:16;5.63;;;3.17;;
23078;SDS011;11707;50.830;4.364;2023-04-15T11:52:54;4.82;;;2.28;;
23078;SDS011;11707;50.830;4.364;2023-04-15T11:55:23;5.07;;;2.80;;
23078;SDS011;11707;50.830;4.364;2023-04-15T11:58:04;3.78;;;1.55;;
23078;SDS011;11707;50.830;4.364;2023-04-15T12:00:32;4.13;;;2.80;;
23078;SDS011;11707;50.830;4.364;2023-04-15T12:03:11;5.30;;;3.10;;
23078;SDS011;11707;50.830;4.364;2023-04-15T12:08:47;4.60;;;3.13;;
23078;SDS011;11707;50.830;4.364;2023-04-15T12:11:13;6.70;;;3.17;;
23078;SDS011;11707;50.830;4.364;2023-04-15T12:13:43;3.83;;;3.10;;
23078;SDS011;11707;50.830;4.364;2023-04-15T12:16:10;5.78;;;2.95;;
23078;SDS011;11707;50.830;4.364;2023-04-15T12:18:39;3.88;;;2.15;;
23078;SDS011;11707;50.830;4.364;2023-04-15T12:21:10;2.95;;;1.90;;
23078;SDS011;11707;50.830;4.364;2023-04-15T12:23:37;6.60;;;2.30;;
23078;SDS011;11707;50.830;4.364;2023-04-15T12:26:06;6.20;;;2.92;;
23078;SDS011;11707;50.830;4.364;2023-04-15T12:28:35;4.82;;;2.97;;
23078;SDS011;11707;50.830;4.364;2023-04-15T12:31:07;5.82;;;3.13;;
23078;SDS011;11707;50.830;4.364;2023-04-15T12:33:34;9.40;;;3.30;;
23078;SDS011;11707;50.830;4.364;2023-04-15T12:35:59;2.75;;;2.05;;
23078;SDS011;11707;50.830;4.364;2023-04-15T12:38:25;10.75;;;2.53;;
23078;SDS011;11707;50.830;4.364;2023-04-15T12:40:52;3.20;;;2.13;;
23078;SDS011;11707;50.830;4.364;2023-04-15T12:43:20;2.92;;;2.00;;
23078;SDS011;11707;50.830;4.364;2023-04-15T12:45:46;5.57;;;2.88;;
23078;SDS011;11707;50.830;4.364;2023-04-15T12:48:11;3.00;;;1.95;;
23078;SDS011;11707;50.830;4.364;2023-04-15T12:50:37;4.03;;;2.20;;
23078;SDS011;11707;50.830;4.364;2023-04-15T12:53:03;4.80;;;2.20;;
23078;SDS011;11707;50.830;4.364;2023-04-15T12:55:28;4.63;;;2.72;;
23078;SDS011;11707;50.830;4.364;2023-04-15T12:57:55;2.90;;;1.73;;
23078;SDS011;11707;50.830;4.364;2023-04-15T13:00:21;2.95;;;1.98;;
23078;SDS011;11707;50.830;4.364;2023-04-15T13:02:49;5.72;;;1.70;;
23078;SDS011;11707;50.830;4.364;2023-04-15T13:05:15;5.60;;;2.13;;
23078;SDS011;11707;50.830;4.364;2023-04-15T13:07:43;4.40;;;2.15;;
23078;SDS011;11707;50.830;4.364;2023-04-15T13:10:09;3.05;;;1.85;;
23078;SDS011;11707;50.830;4.364;2023-04-15T13:12:35;3.92;;;2.13;;
23078;SDS011;11707;50.830;4.364;2023-04-15T13:15:04;3.40;;;2.20;;
23078;SDS011;11707;50.830;4.364;2023-04-15T13:17:30;6.57;;;2.50;;
23078;SDS011;11707;50.830;4.364;2023-04-15T13:19:55;3.30;;;1.80;;
23078;SDS011;11707;50.830;4.364;2023-04-15T13:22:21;3.85;;;2.00;;
23078;SDS011;11707;50.830;4.364;2023-04-15T13:24:47;4.28;;;2.47;;
23078;SDS011;11707;50.830;4.364;2023-04-15T13:27:16;5.05;;;2.22;;
23078;SDS011;11707;50.830;4.364;2023-04-15T13:29:43;8.38;;;2.60;;
23078;SDS011;11707;50.830;4.364;2023-04-15T13:32:09;4.55;;;2.53;;
23078;SDS011;11707;50.830;4.364;2023-04-15T13:34:37;4.55;;;2.47;;
23078;SDS011;11707;50.830;4.364;2023-04-15T13:37:06;5.00;;;3.08;;
23078;SDS011;11707;50.830;4.364;2023-04-15T13:39:33;7.63;;;2.72;;
23078;SDS011;11707;50.830;4.364;2023-04-15T13:41:58;5.97;;;2.58;;
23078;SDS011;11707;50.830;4.364;2023-04-15T13:44:24;4.95;;;2.47;;
23078;SDS011;11707;50.830;4.364;2023-04-15T13:46:50;8.13;;;2.33;;
23078;SDS011;11707;50.830;4.364;2023-04-15T13:49:16;6.93;;;2.70;;
23078;SDS011;11707;50.830;4.364;2023-04-15T13:51:42;7.30;;;2.78;;
23078;SDS011;11707;50.830;4.364;2023-04-15T13:54:07;5.10;;;2.40;;
23078;SDS011;11707;50.830;4.364;2023-04-15T13:56:33;4.63;;;2.10;;
23078;SDS011;11707;50.830;4.364;2023-04-15T13:59:01;5.13;;;2.33;;
23078;SDS011;11707;50.830;4.364;2023-04-15T14:01:27;6.15;;;2.28;;
23078;SDS011;11707;50.830;4.364;2023-04-15T14:03:53;5.70;;;2.08;;
23078;SDS011;11707;50.830;4.364;2023-04-15T14:06:20;6.88;;;2.20;;
23078;SDS011;11707;50.830;4.364;2023-04-15T14:08:45;4.90;;;1.45;;
23078;SDS011;11707;50.830;4.364;2023-04-15T14:11:11;6.45;;;1.80;;
23078;SDS011;11707;50.830;4.364;2023-04-15T14:13:37;6.50;;;2.20;;
23078;SDS011;11707;50.830;4.364;2023-04-15T14:16:03;5.85;;;2.63;;
23078;SDS011;11707;50.830;4.364;2023-04-15T14:18:32;5.47;;;2.50;;
23078;SDS011;11707;50.830;4.364;2023-04-15T14:20:57;6.40;;;2.60;;
23078;SDS011;11707;50.830;4.364;2023-04-15T14:23:25;4.47;;;2.25;;
23078;SDS011;11707;50.830;4.364;2023-04-15T14:25:51;5.22;;;2.45;;
23078;SDS011;11707;50.830;4.364;2023-04-15T14:28:17;4.05;;;1.90;;
23078;SDS011;11707;50.830;4.364;2023-04-15T14:30:43;5.10;;;2.00;;
23078;SDS011;11707;50.830;4.364;2023-04-15T14:33:09;5.78;;;2.17;;
23078;SDS011;11707;50.830;4.364;2023-04-15T14:35:37;7.03;;;1.90;;
23078;SDS011;11707;50.830;4.364;2023-04-15T14:38:03;4.00;;;1.80;;
23078;SDS011;11707;50.830;4.364;2023-04-15T14:40:34;3.70;;;1.50;;
23078;SDS011;11707;50.830;4.364;2023-04-15T14:43:06;3.92;;;1.10;;
23078;SDS011;11707;50.830;4.364;2023-04-15T14:45:31;3.75;;;1.02;;
23078;SDS011;11707;50.830;4.364;2023-04-15T14:48:00;4.20;;;0.95;;
23078;SDS011;11707;50.830;4.364;2023-04-15T14:50:30;3.22;;;1.50;;
23078;SDS011;11707;50.830;4.364;2023-04-15T14:52:56;4.05;;;1.20;;
23078;SDS011;11707;50.830;4.364;2023-04-15T14:55:22;3.58;;;1.58;;
23078;SDS011;11707;50.830;4.364;2023-04-15T14:57:48;3.30;;;1.50;;
23078;SDS011;11707;50.830;4.364;2023-04-15T15:00:14;5.07;;;1.73;;
23078;SDS011;11707;50.830;4.364;2023-04-15T15:02:43;4.22;;;1.48;;